Flight Track Log - Related Links

Times and Time Zones

All times are in EST time to prevent confusion due to time zone crossing. See the EGF3479 flight status page for this flight to view local times or setup timezone preferences in your user account.

Time Position Orientation Groundspeed Altitude Reporting Facility
EST Latitude Longitude Course Direction KTS MPH feet Rate Location/Type
Wed 04:43:58 PM 38.8167 -77.0333 218° Southwest 158 182 1,100  Level Potomac TRACON
Wed 04:44:58 PM 38.7667 -77.0333 180° South 228 262 2,900 1,900 Climbing Potomac TRACON
Wed 04:45:58 PM 38.7333 -77.1000 237° Southwest 238 274 4,900 2,400 Climbing Potomac TRACON
Wed 04:46:00 PM 38.6114 -77.1851 218° Southwest  Level Estimated
Wed 04:46:58 PM 38.7000 -77.1667 237° Southwest 233 268 7,700  Level Potomac TRACON
Wed 04:47:00 PM 38.5312 -77.2340 225° Southwest  Level Estimated
Wed 04:47:58 PM 38.6500 -77.2167 218° Southwest 217 250 10,500  Level Potomac TRACON
Wed 04:48:00 PM 38.4923 -77.3361 244° Southwest  Level FlightAware Approximate
Wed 04:48:59 PM 38.6000 -77.2833 226° Southwest 247 284 12,200  Level Potomac TRACON
Wed 04:49:00 PM 38.4113 -77.3828 218° Southwest  Level Estimated
Wed 04:50:15 PM 38.5481 -77.3622 230° Southwest 268 308 14,000  Level Washington Center
Wed 04:51:13 PM 38.4947 -77.4328 226° Southwest 273 314 15,900 1,866 Climbing Washington Center
Wed 04:52:14 PM 38.4458 -77.5056 229° Southwest 273 314 17,700 1,636 Climbing Washington Center
Wed 04:53:14 PM 38.3903 -77.5758 225° Southwest 273 314 19,200 1,150 Climbing Washington Center
Wed 04:54:14 PM 38.3228 -77.6347 214° Southwest 286 329 20,000 407 Climbing Washington Center
Wed 04:55:12 PM 38.2508 -77.6964 214° Southwest 300 345 20,000  Level Washington Center
Wed 04:56:12 PM 38.1767 -77.7603 214° Southwest 312 359 20,000  Level Washington Center
Wed 04:57:13 PM 38.1044 -77.8217 214° Southwest 317 365 20,000  Level Washington Center
Wed 04:58:14 PM 38.0303 -77.8853 214° Southwest 317 365 20,000  Level Washington Center
Wed 04:59:12 PM 37.9583 -77.9436 213° Southwest 317 365 20,000  Level Washington Center
Wed 05:00:13 PM 37.8842 -78.0044 213° Southwest 317 365 20,000  Level Washington Center
Wed 05:01:13 PM 37.8142 -78.0653 214° Southwest 317 365 20,000  Level Washington Center
Wed 05:02:14 PM 37.7356 -78.1336 215° Southwest 312 359 20,000  Level Washington Center
Wed 05:03:14 PM 37.6675 -78.1917 214° Southwest 312 359 20,000  Level Washington Center
Wed 05:04:14 PM 37.6036 -78.2472 215° Southwest 312 359 20,000  Level Washington Center
Wed 05:05:13 PM 37.5314 -78.3075 214° Southwest 312 359 20,000  Level Washington Center
Wed 05:06:14 PM 37.4592 -78.3703 215° Southwest 312 359 20,000  Level Washington Center
Wed 05:07:15 PM 37.3869 -78.4278 212° Southwest 312 359 20,000  Level Washington Center
Wed 05:08:12 PM 37.3144 -78.4878 213° Southwest 312 359 20,000  Level Washington Center
Wed 05:09:13 PM 37.2356 -78.5553 214° Southwest 312 359 20,000 -98 Level Washington Center
Wed 05:10:14 PM 37.1589 -78.6175 213° Southwest 312 359 19,800 -605 Descending Washington Center
Wed 05:11:12 PM 37.0844 -78.6769 213° Southwest 317 365 18,800 -966 Descending Washington Center
Wed 05:12:12 PM 37.0161 -78.7367 215° Southwest 312 359 17,900 -694 Descending Washington Center
Wed 05:13:13 PM 36.9339 -78.7697 198° South 307 353 17,400 -639 Descending Washington Center
Wed 05:14:14 PM 36.8583 -78.7900 192° South 312 359 16,600 -942 Descending Washington Center
Wed 05:15:14 PM 36.7719 -78.8175 194° South 317 365 15,500 -1,150 Descending Washington Center
Wed 05:16:14 PM 36.6878 -78.8450 195° South 317 365 14,300 -1,322 Descending Washington Center
Wed 05:17:12 PM 36.5931 -78.8775 195° South 322 371 12,900 -1,279 Descending Washington Center
Wed 05:17:15 PM 36.5908 -78.8772 174° South 319 367 13,000 -1,258 Climbing Washington Center
Wed 05:18:14 PM 36.5150 -78.9050 196° South 312 359 11,600 -1,231 Descending Washington Center
Wed 05:19:12 PM 36.4436 -78.9228 191° South 287 330 10,600 -938 Descending Washington Center
Wed 05:19:18 PM 36.4331 -78.9300 209° Southwest 265 305 10,600 -900 Level Washington Center
Wed 05:20:12 PM 36.3750 -78.9147 168° South 270 311 9,700 -1,182 Descending Washington Center
Wed 05:20:24 PM 36.3586 -78.9061 157° South 293 337 9,300 -1,475 Descending Washington Center
Wed 05:21:13 PM 36.3056 -78.8550 142° Southeast 270 311 8,200 -1,309 Descending Washington Center
Wed 05:21:19 PM 36.2994 -78.8522 160° South 283 326 8,100 -200 Descending Washington Center
Wed 05:22:13 PM 36.2486 -78.8036 142° Southeast 253 291 8,000 -626 Descending Washington Center
Wed 05:23:14 PM 36.1997 -78.7606 145° Southeast 253 291 6,900 -1,417 Descending Washington Center
Wed 05:24:20 PM 36.1281 -78.7089 150° Southeast 257 296 5,000 -1,780 Descending Washington Center
Wed 05:25:12 PM 36.0681 -78.6883 165° South 252 290 3,400 -1,791 Descending Washington Center
Wed 05:25:27 PM 36.0514 -78.6853 172° South 241 277 3,000 -1,300 Descending Washington Center
Wed 05:26:12 PM 36.0075 -78.6886 184° South 234 269 2,100 -1,125 Descending Washington Center
Wed 05:26:15 PM 36.0033 -78.6911 206° Southwest 214 246 2,100 -94 Level Washington Center
Wed 05:27:16 PM 35.9531 -78.7019 190° South 188 216 2,000 -439 Descending Washington Center
Wed 05:28:18 PM 35.9206 -78.7467 228° Southwest 141 162 1,200 -667 Descending Washington Center
Wed 05:29:13 PM 35.8989 -78.7717 223° Southwest 117 135 700 -545 Descending Washington Center
Wed 05:31:00 PM 35.8776 -78.7875 90° East  Level Estimated
Wed 05:38:00 PM 35.8776 -78.7875 90° East  Level Estimated
Wed 05:39:00 PM 35.8776 -78.7875 90° East  Level Estimated
Wed 05:40:00 PM 35.8776 -78.7875 90° East  Level Estimated
Wed 05:41:00 PM 35.8776 -78.7875 90° East  Level Estimated

Login

Don't have an account? Register now (free) for customized features, flight alerts, and more!